createdAt,value
2023-09-26T00:00:00.444Z,18.54
2023-09-26T00:03:46.206Z,18.55
2023-09-26T00:07:14.056Z,18.55
2023-09-26T00:10:41.058Z,18.54
2023-09-26T00:14:07.751Z,18.53
2023-09-26T00:17:34.114Z,18.50
2023-09-26T00:21:00.183Z,18.48
2023-09-26T00:24:26.413Z,18.43
2023-09-26T00:27:54.121Z,18.39
2023-09-26T00:31:20.718Z,18.36
2023-09-26T00:34:47.257Z,18.32
2023-09-26T00:38:13.701Z,18.31
2023-09-26T00:41:40.187Z,18.28
2023-09-26T00:45:07.726Z,18.28
2023-09-26T00:48:34.675Z,18.27
2023-09-26T00:52:02.748Z,18.29
2023-09-26T00:55:29.200Z,18.31
2023-09-26T00:58:55.410Z,18.33
2023-09-26T01:02:23.497Z,18.38
2023-09-26T01:05:49.464Z,18.41
2023-09-26T01:09:16.301Z,18.41
2023-09-26T01:12:42.853Z,18.41
2023-09-26T01:16:22.985Z,18.39
2023-09-26T01:19:49.370Z,18.37
2023-09-26T01:23:17.138Z,18.32
2023-09-26T01:26:42.959Z,18.26
2023-09-26T01:30:12.488Z,18.23
2023-09-26T01:33:39.093Z,18.20
2023-09-26T01:37:05.127Z,18.18
2023-09-26T01:40:31.357Z,18.15
2023-09-26T01:43:57.121Z,18.15
2023-09-26T01:47:34.764Z,18.13
2023-09-26T01:51:00.470Z,18.14
2023-09-26T01:54:26.189Z,18.17
2023-09-26T01:57:53.290Z,18.21
2023-09-26T02:01:19.850Z,18.26
2023-09-26T02:04:45.746Z,18.29
2023-09-26T02:08:11.872Z,18.33
2023-09-26T02:11:37.887Z,18.35
2023-09-26T02:15:06.075Z,18.37
2023-09-26T02:18:32.309Z,18.37
2023-09-26T02:21:58.680Z,18.36
2023-09-26T02:25:25.691Z,18.35
2023-09-26T02:28:51.833Z,18.31
2023-09-26T02:32:18.031Z,18.28
2023-09-26T02:35:44.325Z,18.25
2023-09-26T02:39:10.545Z,18.23
2023-09-26T02:42:38.179Z,18.21
2023-09-26T02:46:04.226Z,18.18
2023-09-26T02:49:30.536Z,18.17
2023-09-26T02:52:56.858Z,18.17
2023-09-26T02:56:22.752Z,18.17
2023-09-26T02:59:49.590Z,18.19
2023-09-26T03:03:15.702Z,18.22
2023-09-26T03:06:41.631Z,18.27
2023-09-26T03:10:12.352Z,18.31
2023-09-26T03:13:39.183Z,18.33
2023-09-26T03:17:07.103Z,18.36
2023-09-26T03:20:33.116Z,18.39
2023-09-26T03:23:58.903Z,18.40
2023-09-26T03:27:25.750Z,18.40
2023-09-26T03:30:51.648Z,18.38
2023-09-26T03:34:17.532Z,18.35
2023-09-26T03:37:43.758Z,18.32
2023-09-26T03:41:09.952Z,18.27
2023-09-26T03:44:36.017Z,18.24
2023-09-26T03:48:02.361Z,18.20
2023-09-26T03:51:28.612Z,18.18
2023-09-26T03:54:55.020Z,18.12
2023-09-26T03:58:21.283Z,18.11
2023-09-26T04:01:48.852Z,18.13
2023-09-26T04:05:14.999Z,18.17
2023-09-26T04:08:41.870Z,18.19
2023-09-26T04:12:09.117Z,18.21
2023-09-26T04:15:38.416Z,18.25
2023-09-26T04:19:04.549Z,18.28
2023-09-26T04:22:30.700Z,18.27
2023-09-26T04:25:56.669Z,18.24
2023-09-26T04:29:22.607Z,18.21
2023-09-26T04:32:49.144Z,18.17
2023-09-26T04:36:15.154Z,18.16
2023-09-26T04:39:40.910Z,18.14
2023-09-26T04:43:08.119Z,18.11
2023-09-26T04:46:34.301Z,18.10
2023-09-26T04:50:00.362Z,18.09
2023-09-26T04:53:26.326Z,18.10
2023-09-26T04:56:52.211Z,18.10
2023-09-26T05:00:21.307Z,18.11
2023-09-26T05:03:47.992Z,18.13
2023-09-26T05:07:13.870Z,18.17
2023-09-26T05:10:41.676Z,18.21
2023-09-26T05:14:07.739Z,18.24
2023-09-26T05:17:34.060Z,18.28
2023-09-26T05:21:00.463Z,18.31
2023-09-26T05:24:27.009Z,18.33
2023-09-26T05:27:53.243Z,18.33
2023-09-26T05:31:22.176Z,18.33
2023-09-26T05:34:49.553Z,18.33
2023-09-26T05:38:15.482Z,18.31
2023-09-26T05:41:41.911Z,18.30
2023-09-26T05:45:10.064Z,18.30
2023-09-26T05:48:37.266Z,18.30
2023-09-26T05:52:03.852Z,18.33
2023-09-26T05:55:30.271Z,18.37
2023-09-26T05:58:56.235Z,18.41
2023-09-26T06:02:22.380Z,18.47
2023-09-26T06:05:49.392Z,18.55
2023-09-26T06:09:15.444Z,18.61
2023-09-26T06:12:41.173Z,18.66
2023-09-26T06:16:09.610Z,18.70
2023-09-26T06:19:35.715Z,18.73
2023-09-26T06:23:02.538Z,18.74
2023-09-26T06:26:29.704Z,18.76
2023-09-26T06:29:55.834Z,18.76
2023-09-26T06:33:21.979Z,18.75
2023-09-26T06:36:49.121Z,18.75
2023-09-26T06:40:15.734Z,18.76
2023-09-26T06:43:41.895Z,18.79
2023-09-26T06:47:07.938Z,18.83
2023-09-26T06:50:34.366Z,18.88
2023-09-26T06:54:00.250Z,18.93
2023-09-26T06:57:27.992Z,19.00
2023-09-26T07:00:56.524Z,19.09
2023-09-26T07:04:22.799Z,19.12
2023-09-26T07:07:48.921Z,19.19
2023-09-26T07:11:15.403Z,19.25
2023-09-26T07:14:41.810Z,19.32
2023-09-26T07:18:11.495Z,19.37
2023-09-26T07:21:37.897Z,19.44
2023-09-26T07:25:06.013Z,19.45
2023-09-26T07:28:33.270Z,19.43
2023-09-26T07:31:59.757Z,19.45
2023-09-26T07:35:27.251Z,19.45
2023-09-26T07:38:53.640Z,19.51
2023-09-26T07:42:19.781Z,19.57
2023-09-26T07:45:46.109Z,19.60
2023-09-26T07:49:12.022Z,19.66
2023-09-26T07:52:38.347Z,19.74
2023-09-26T07:56:04.426Z,19.82
2023-09-26T07:59:30.457Z,19.90
2023-09-26T08:02:56.214Z,19.99
2023-09-26T08:06:23.317Z,20.06
2023-09-26T08:09:49.877Z,20.15
2023-09-26T08:13:16.521Z,20.24
2023-09-26T08:16:42.842Z,20.31
2023-09-26T08:20:11.324Z,20.36
2023-09-26T08:23:37.542Z,20.43
2023-09-26T08:27:03.154Z,20.48
2023-09-26T08:30:29.643Z,20.58
2023-09-26T08:33:56.208Z,20.63
2023-09-26T08:37:24.876Z,20.69
2023-09-26T08:40:56.278Z,20.78
2023-09-26T08:44:22.772Z,20.88
2023-09-26T08:47:50.890Z,20.98
2023-09-26T08:51:17.211Z,21.09
2023-09-26T08:54:43.283Z,21.21
2023-09-26T08:58:10.864Z,21.34
2023-09-26T09:01:37.230Z,21.48
2023-09-26T09:05:03.470Z,21.57
2023-09-26T09:08:29.828Z,21.63
2023-09-26T09:11:55.706Z,21.71
2023-09-26T09:15:26.057Z,21.75
2023-09-26T09:18:58.870Z,21.72
2023-09-26T09:22:24.459Z,21.77
2023-09-26T09:25:51.633Z,21.79
2023-09-26T09:29:23.444Z,21.81
2023-09-26T09:32:50.192Z,21.89
2023-09-26T09:36:16.953Z,21.99
2023-09-26T09:39:42.766Z,22.11
2023-09-26T09:43:09.465Z,22.29
2023-09-26T09:46:40.459Z,22.46
2023-09-26T09:50:09.413Z,22.65
2023-09-26T09:53:38.018Z,22.78
2023-09-26T09:57:11.381Z,22.91
2023-09-26T10:00:40.744Z,23.01
2023-09-26T10:04:09.433Z,23.12
2023-09-26T10:07:37.705Z,23.18
2023-09-26T10:11:09.543Z,23.20
2023-09-26T10:14:35.992Z,23.28
2023-09-26T10:18:08.210Z,23.34
2023-09-26T10:21:34.464Z,23.36
2023-09-26T10:25:02.761Z,23.32
2023-09-26T10:28:29.336Z,23.32
2023-09-26T10:31:59.510Z,23.32
2023-09-26T10:35:30.206Z,23.41
2023-09-26T10:39:03.985Z,23.56
2023-09-26T10:43:14.914Z,23.50
2023-09-26T10:46:20.693Z,23.40
2023-09-26T10:49:47.238Z,23.46
2023-09-26T10:53:15.036Z,23.69
2023-09-26T10:56:50.116Z,23.66
2023-09-26T11:00:20.651Z,23.61
2023-09-26T11:03:46.911Z,23.59
2023-09-26T11:07:13.806Z,23.56
2023-09-26T11:10:40.281Z,23.59
2023-09-26T11:14:07.604Z,23.56
2023-09-26T11:17:34.989Z,23.56
2023-09-26T11:21:23.978Z,23.58
2023-09-26T11:24:52.012Z,23.60
2023-09-26T11:28:19.214Z,23.59
2023-09-26T11:31:47.053Z,23.60
2023-09-26T11:35:13.018Z,23.54
2023-09-26T11:38:49.089Z,23.54
2023-09-26T11:42:18.957Z,23.55
2023-09-26T11:45:45.463Z,23.60
2023-09-26T11:49:11.698Z,23.66
2023-09-26T11:52:37.759Z,23.77
2023-09-26T11:56:07.478Z,24.08
2023-09-26T11:59:34.917Z,24.28
2023-09-26T12:03:03.156Z,24.35
2023-09-26T12:06:29.264Z,24.41
2023-09-26T12:09:55.339Z,24.48
2023-09-26T12:13:21.680Z,24.58
2023-09-26T12:16:54.624Z,24.61
2023-09-26T12:20:25.722Z,24.61
2023-09-26T12:23:53.031Z,24.66
2023-09-26T12:27:18.825Z,24.67
2023-09-26T12:30:45.346Z,24.67
2023-09-26T12:34:11.483Z,24.68
2023-09-26T12:37:37.660Z,24.67
2023-09-26T12:41:04.402Z,24.65
2023-09-26T12:44:30.564Z,24.62
2023-09-26T12:47:56.713Z,24.62
2023-09-26T12:51:22.918Z,24.57
2023-09-26T12:54:50.216Z,24.50
2023-09-26T12:58:16.340Z,24.42
2023-09-26T13:01:43.099Z,24.36
2023-09-26T13:05:10.135Z,24.33
2023-09-26T13:08:35.759Z,24.36
2023-09-26T13:12:01.828Z,24.55
2023-09-26T13:15:29.710Z,24.72
2023-09-26T13:18:57.055Z,24.96
2023-09-26T13:22:23.277Z,25.21
2023-09-26T13:25:49.792Z,25.42
2023-09-26T13:29:15.966Z,25.65
2023-09-26T13:32:41.863Z,25.87
2023-09-26T13:36:08.593Z,26.04
2023-09-26T13:39:34.477Z,26.27
2023-09-26T13:43:00.889Z,26.48
2023-09-26T13:46:27.413Z,26.61
2023-09-26T13:49:54.009Z,26.72
2023-09-26T13:53:20.252Z,26.64
2023-09-26T13:56:48.880Z,26.53
2023-09-26T14:00:16.805Z,26.41
2023-09-26T14:03:43.437Z,26.24
2023-09-26T14:07:09.354Z,26.08
2023-09-26T14:10:37.494Z,25.95
2023-09-26T14:14:03.769Z,25.79
2023-09-26T14:17:29.748Z,25.65
2023-09-26T14:20:57.320Z,25.53
2023-09-26T14:24:23.690Z,25.39
2023-09-26T14:27:51.208Z,25.28
2023-09-26T14:31:20.662Z,25.15
2023-09-26T14:34:50.323Z,25.00
2023-09-26T14:38:18.336Z,24.86
2023-09-26T14:41:43.984Z,24.72
2023-09-26T14:45:11.382Z,24.60
2023-09-26T14:48:37.608Z,24.49
2023-09-26T14:52:03.959Z,24.36
2023-09-26T14:55:30.485Z,24.27
2023-09-26T14:58:56.515Z,24.20
2023-09-26T15:02:22.660Z,24.08
2023-09-26T15:05:51.262Z,23.98
2023-09-26T15:09:17.817Z,23.87
2023-09-26T15:12:44.468Z,23.76
2023-09-26T15:16:10.752Z,23.66
2023-09-26T15:19:37.535Z,23.58
2023-09-26T15:23:04.157Z,23.49
2023-09-26T15:26:30.121Z,23.40
2023-09-26T15:29:56.350Z,23.32
2023-09-26T15:33:22.715Z,23.27
2023-09-26T15:36:49.063Z,23.25
2023-09-26T15:40:15.603Z,23.21
2023-09-26T15:43:42.145Z,23.15
2023-09-26T15:47:09.104Z,23.11
2023-09-26T15:50:35.645Z,23.08
2023-09-26T15:54:01.887Z,23.01
2023-09-26T15:57:28.761Z,22.93
2023-09-26T16:00:55.269Z,22.87
2023-09-26T16:04:21.613Z,22.78
2023-09-26T16:07:47.950Z,22.71
2023-09-26T16:11:14.107Z,22.64
2023-09-26T16:14:41.564Z,22.54
2023-09-26T16:18:08.996Z,22.43
2023-09-26T16:21:35.609Z,22.32
2023-09-26T16:25:01.534Z,22.21
2023-09-26T16:28:27.749Z,22.11
2023-09-26T16:31:53.738Z,22.03
2023-09-26T16:35:20.123Z,21.98
2023-09-26T16:38:46.689Z,21.91
2023-09-26T16:42:12.963Z,21.86
2023-09-26T16:45:38.838Z,21.82
2023-09-26T16:49:04.865Z,21.77
2023-09-26T16:52:31.761Z,21.72
2023-09-26T16:55:58.007Z,21.65
2023-09-26T16:59:24.429Z,21.57
2023-09-26T17:02:50.922Z,21.45
2023-09-26T17:06:18.306Z,21.41
2023-09-26T17:09:44.652Z,21.30
2023-09-26T17:13:11.123Z,21.19
2023-09-26T17:16:37.556Z,21.08
2023-09-26T17:20:06.191Z,20.98
2023-09-26T17:23:32.090Z,20.91
2023-09-26T17:26:58.068Z,20.83
2023-09-26T17:30:27.233Z,20.77
2023-09-26T17:33:54.077Z,20.70
2023-09-26T17:37:21.739Z,20.65
2023-09-26T17:40:47.854Z,20.61
2023-09-26T17:44:14.174Z,20.59
2023-09-26T17:47:41.044Z,20.56
2023-09-26T17:51:12.204Z,20.53
2023-09-26T17:54:39.115Z,20.51
2023-09-26T17:58:08.733Z,20.48
2023-09-26T18:01:39.195Z,20.43
2023-09-26T18:05:06.495Z,20.37
2023-09-26T18:08:33.653Z,20.29
2023-09-26T18:12:00.899Z,20.22
2023-09-26T18:15:28.504Z,20.14
2023-09-26T18:18:54.827Z,20.07
2023-09-26T18:22:25.320Z,20.01
2023-09-26T18:25:51.542Z,19.97
2023-09-26T18:29:18.685Z,19.93
2023-09-26T18:32:45.146Z,19.89
2023-09-26T18:36:12.145Z,19.89
2023-09-26T18:39:39.283Z,19.87
2023-09-26T18:43:06.442Z,19.85
2023-09-26T18:46:32.736Z,19.82
2023-09-26T18:49:59.071Z,19.80
2023-09-26T18:53:25.745Z,19.77
2023-09-26T18:56:54.766Z,19.70
2023-09-26T19:00:21.652Z,19.63
2023-09-26T19:03:47.730Z,19.56
2023-09-26T19:07:14.158Z,19.49
2023-09-26T19:10:43.100Z,19.42
2023-09-26T19:14:08.871Z,19.34
2023-09-26T19:17:35.087Z,19.29
2023-09-26T19:21:01.533Z,19.24
2023-09-26T19:24:27.891Z,19.20
2023-09-26T19:27:56.204Z,19.18
2023-09-26T19:31:23.505Z,19.16
2023-09-26T19:34:50.781Z,19.16
2023-09-26T19:38:18.059Z,19.13
2023-09-26T19:41:44.512Z,19.12
2023-09-26T19:45:14.561Z,19.11
2023-09-26T19:48:40.412Z,19.10
2023-09-26T19:52:07.102Z,19.09
2023-09-26T19:55:33.308Z,19.06
2023-09-26T19:58:59.668Z,19.02
2023-09-26T20:02:26.171Z,18.97
2023-09-26T20:05:52.447Z,18.91
2023-09-26T20:09:18.847Z,18.83
2023-09-26T20:12:44.661Z,18.77
2023-09-26T20:16:10.840Z,18.70
2023-09-26T20:19:37.582Z,18.65
2023-09-26T20:23:07.179Z,18.59
2023-09-26T20:26:33.469Z,18.54
2023-09-26T20:29:59.797Z,18.50
2023-09-26T20:33:25.916Z,18.48
2023-09-26T20:36:52.361Z,18.44
2023-09-26T20:40:19.041Z,18.41
2023-09-26T20:43:45.004Z,18.37
2023-09-26T20:47:11.346Z,18.34
2023-09-26T20:50:37.614Z,18.33
2023-09-26T20:54:04.259Z,18.30
2023-09-26T20:57:30.517Z,18.26
2023-09-26T21:00:56.626Z,18.20
2023-09-26T21:04:23.116Z,18.14
2023-09-26T21:07:49.128Z,18.09
2023-09-26T21:11:15.102Z,18.02
2023-09-26T21:14:43.852Z,17.93
2023-09-26T21:18:10.194Z,17.83
2023-09-26T21:21:36.260Z,17.76
2023-09-26T21:25:02.852Z,17.69
2023-09-26T21:28:29.036Z,17.64
2023-09-26T21:31:55.528Z,17.62
2023-09-26T21:35:22.460Z,17.61
2023-09-26T21:38:49.232Z,17.62
2023-09-26T21:42:15.673Z,17.64
2023-09-26T21:45:41.643Z,17.64
2023-09-26T21:49:08.365Z,17.65
2023-09-26T21:52:35.285Z,17.64
2023-09-26T21:56:01.076Z,17.61
2023-09-26T21:59:33.040Z,17.56
2023-09-26T22:03:03.272Z,17.50
2023-09-26T22:06:29.450Z,17.44
2023-09-26T22:09:55.589Z,17.38
2023-09-26T22:13:28.184Z,17.33
2023-09-26T22:16:54.131Z,17.29
2023-09-26T22:20:23.362Z,17.23
2023-09-26T22:23:50.868Z,17.09
2023-09-26T22:27:17.215Z,17.00
2023-09-26T22:30:43.508Z,17.00
2023-09-26T22:34:09.852Z,17.02
2023-09-26T22:37:36.762Z,17.04
2023-09-26T22:41:03.049Z,17.04
2023-09-26T22:44:32.241Z,17.05
2023-09-26T22:47:58.427Z,17.05
2023-09-26T22:51:25.127Z,17.03
2023-09-26T22:54:51.012Z,17.00
2023-09-26T22:58:16.821Z,16.96
2023-09-26T23:01:43.102Z,16.90
2023-09-26T23:05:10.395Z,16.83
2023-09-26T23:08:36.643Z,16.75
2023-09-26T23:12:02.801Z,16.69
2023-09-26T23:15:28.921Z,16.64
2023-09-26T23:18:55.268Z,16.59
2023-09-26T23:22:21.547Z,16.57
2023-09-26T23:25:47.533Z,16.54
2023-09-26T23:29:14.130Z,16.53
2023-09-26T23:32:42.743Z,16.50
2023-09-26T23:36:13.919Z,16.46
2023-09-26T23:39:39.965Z,16.48
2023-09-26T23:43:07.529Z,16.51
2023-09-26T23:46:34.560Z,16.51
2023-09-26T23:50:02.717Z,16.49
2023-09-26T23:53:29.885Z,16.46
2023-09-26T23:56:56.109Z,16.42
